Time;durP1;ratioP1;P1;durP2;ratioP2;P2;SDS_P1;SDS_P2;PMS_P1;PMS_P2;Temp;Humidity;BMP_temperature;BMP_pressure;BME280_temperature;BME280_humidity;BME280_pressure;Samples;Min_cycle;Max_cycle;Signal;HPM_P1;HPM_P2
2021/03/02 00:00:35;;;;;;;46.45;22.85;;;;;;;;;;5093636;28;20200;-64
2021/03/02 00:03:03;;;;;;;42.25;23.10;;;;;;;;;;5093465;28;20228;-64
2021/03/02 00:05:30;;;;;;;46.28;21.88;;;;;;;;;;5093313;28;20200;-64
2021/03/02 00:07:59;;;;;;;73.13;25.63;;;;;;;;;;5093132;28;20201;-64
2021/03/02 00:10:26;;;;;;;65.05;23.70;;;;;;;;;;5093093;28;20200;-65
2021/03/02 00:12:53;;;;;;;77.20;23.90;;;;;;;;;;5093321;28;20204;-64
2021/03/02 00:15:20;;;;;;;56.67;23.75;;;;;;;;;;5093284;28;20573;-64
2021/03/02 00:17:48;;;;;;;44.05;23.85;;;;;;;;;;5093398;28;20196;-64
2021/03/02 00:20:17;;;;;;;44.08;22.70;;;;;;;;;;5093398;28;20656;-63
2021/03/02 00:22:54;;;;;;;62.75;24.23;;;;;;;;;;5093712;28;20204;-64
2021/03/02 00:25:21;;;;;;;54.63;23.13;;;;;;;;;;5097305;28;20180;-63
2021/03/02 00:27:48;;;;;;;52.40;26.55;;;;;;;;;;5097402;28;20273;-63
2021/03/02 00:30:16;;;;;;;48.10;25.58;;;;;;;;;;5097256;28;20200;-63
2021/03/02 00:32:45;;;;;;;78.65;28.25;;;;;;;;;;5097363;28;20269;-65
2021/03/02 00:35:11;;;;;;;108.55;31.45;;;;;;;;;;5097520;28;20253;-64
2021/03/02 00:37:39;;;;;;;83.45;30.75;;;;;;;;;;5097404;28;20548;-64
2021/03/02 00:40:07;;;;;;;76.97;30.25;;;;;;;;;;5097416;28;20207;-63
2021/03/02 00:42:33;;;;;;;99.95;31.90;;;;;;;;;;5097349;28;20247;-64
2021/03/02 00:45:00;;;;;;;88.68;31.20;;;;;;;;;;5099259;28;20286;-64
2021/03/02 00:47:27;;;;;;;74.10;31.63;;;;;;;;;;5098800;28;20200;-65
2021/03/02 00:49:54;;;;;;;103.65;34.47;;;;;;;;;;5106602;28;20249;-65
2021/03/02 00:52:21;;;;;;;115.70;33.40;;;;;;;;;;5118647;28;20211;-64
2021/03/02 00:54:48;;;;;;;90.00;31.27;;;;;;;;;;5110622;28;20235;-64
2021/03/02 00:57:15;;;;;;;63.63;29.98;;;;;;;;;;5108573;28;20200;-63
2021/03/02 00:59:42;;;;;;;67.47;32.03;;;;;;;;;;5097944;28;20201;-64
2021/03/02 01:02:10;;;;;;;91.88;33.75;;;;;;;;;;5096724;28;20201;-64
2021/03/02 01:04:37;;;;;;;127.57;33.90;;;;;;;;;;5099773;28;20228;-64
2021/03/02 01:07:04;;;;;;;160.45;36.10;;;;;;;;;;5097186;28;20216;-63
2021/03/02 01:09:31;;;;;;;66.47;28.95;;;;;;;;;;5097168;28;20231;-63
2021/03/02 01:11:58;;;;;;;90.50;32.47;;;;;;;;;;5098020;28;20233;-64
2021/03/02 01:14:25;;;;;;;105.85;30.02;;;;;;;;;;5096549;28;20726;-64
2021/03/02 01:16:52;;;;;;;82.35;31.50;;;;;;;;;;5096761;28;20200;-64
2021/03/02 01:19:19;;;;;;;76.00;29.85;;;;;;;;;;5096511;28;20204;-64
2021/03/02 01:21:45;;;;;;;91.93;31.25;;;;;;;;;;5097432;28;20196;-64
2021/03/02 01:24:12;;;;;;;77.05;28.67;;;;;;;;;;5097328;28;20220;-64
2021/03/02 01:26:39;;;;;;;88.80;33.80;;;;;;;;;;5097391;28;20208;-63
2021/03/02 01:29:07;;;;;;;116.43;32.50;;;;;;;;;;5096480;28;20212;-64
2021/03/02 01:31:33;;;;;;;71.55;30.30;;;;;;;;;;5096526;28;20215;-64
2021/03/02 01:34:00;;;;;;;72.57;30.42;;;;;;;;;;5095944;28;20239;-63
2021/03/02 01:36:27;;;;;;;157.93;38.30;;;;;;;;;;5096821;28;20205;-62
2021/03/02 01:38:54;;;;;;;118.95;34.30;;;;;;;;;;5098426;28;20197;-65
2021/03/02 01:41:21;;;;;;;75.72;34.72;;;;;;;;;;5098355;28;20257;-64
2021/03/02 01:43:47;;;;;;;89.07;34.65;;;;;;;;;;5097820;28;20228;-63
2021/03/02 01:46:15;;;;;;;103.50;36.22;;;;;;;;;;5096207;28;20200;-64
2021/03/02 01:48:42;;;;;;;92.55;35.38;;;;;;;;;;5095921;28;20564;-64
2021/03/02 01:51:09;;;;;;;99.13;35.00;;;;;;;;;;5095678;28;20200;-63
2021/03/02 01:53:36;;;;;;;133.75;38.55;;;;;;;;;;5095948;28;20224;-63
2021/03/02 01:56:04;;;;;;;96.13;35.67;;;;;;;;;;5095970;28;20321;-63
2021/03/02 01:58:31;;;;;;;84.63;35.78;;;;;;;;;;5095653;28;20196;-64
2021/03/02 02:00:58;;;;;;;83.55;33.22;;;;;;;;;;5095427;28;20196;-63
2021/03/02 02:03:28;;;;;;;83.90;33.83;;;;;;;;;;5095542;28;20220;-64
2021/03/02 02:05:59;;;;;;;100.40;38.65;;;;;;;;;;5095543;28;20208;-62
2021/03/02 02:08:31;;;;;;;89.45;36.75;;;;;;;;;;5095739;28;20281;-63
2021/03/02 02:11:01;;;;;;;94.53;35.88;;;;;;;;;;5095693;28;20209;-63
2021/03/02 02:13:31;;;;;;;89.40;35.30;;;;;;;;;;5095542;28;20216;-64
2021/03/02 02:16:00;;;;;;;63.50;31.73;;;;;;;;;;5095704;28;20250;-63
2021/03/02 02:18:29;;;;;;;80.85;33.42;;;;;;;;;;5095625;28;20199;-64
2021/03/02 02:21:02;;;;;;;63.92;31.77;;;;;;;;;;5095671;28;20208;-63
2021/03/02 02:23:33;;;;;;;69.90;30.92;;;;;;;;;;5095191;28;20231;-63
2021/03/02 02:26:06;;;;;;;65.35;27.85;;;;;;;;;;5095168;28;20551;-63
2021/03/02 02:28:34;;;;;;;63.28;27.33;;;;;;;;;;5095244;28;20212;-64
2021/03/02 02:31:03;;;;;;;75.78;27.55;;;;;;;;;;5095600;28;20200;-63
2021/03/02 02:33:32;;;;;;;62.40;24.23;;;;;;;;;;5095696;28;20292;-64
2021/03/02 02:36:00;;;;;;;61.83;29.15;;;;;;;;;;5095367;28;20197;-63
2021/03/02 02:38:28;;;;;;;50.63;24.85;;;;;;;;;;5095140;28;20197;-64
2021/03/02 02:40:56;;;;;;;55.63;24.58;;;;;;;;;;5095317;28;20200;-63
2021/03/02 02:43:23;;;;;;;51.15;25.33;;;;;;;;;;5094783;28;20220;-63
2021/03/02 02:45:51;;;;;;;51.10;23.15;;;;;;;;;;5094367;28;20672;-63
2021/03/02 02:48:19;;;;;;;42.67;22.55;;;;;;;;;;5095246;28;20223;-63
2021/03/02 02:50:46;;;;;;;42.17;22.35;;;;;;;;;;5095585;28;20196;-64
2021/03/02 02:53:13;;;;;;;62.83;22.02;;;;;;;;;;5095026;28;20216;-64
2021/03/02 02:55:44;;;;;;;45.47;21.08;;;;;;;;;;5094909;28;20196;-63
2021/03/02 02:58:11;;;;;;;70.20;21.50;;;;;;;;;;5094749;28;20321;-64
2021/03/02 03:00:39;;;;;;;97.22;24.00;;;;;;;;;;5094212;28;20568;-63
2021/03/02 03:03:09;;;;;;;51.38;21.88;;;;;;;;;;5094620;28;20228;-64
2021/03/02 03:05:37;;;;;;;45.17;21.23;;;;;;;;;;5094716;28;20211;-62
2021/03/02 03:08:07;;;;;;;44.70;22.70;;;;;;;;;;5094583;28;20212;-64
2021/03/02 03:10:35;;;;;;;45.50;20.45;;;;;;;;;;5094405;28;20287;-64
2021/03/02 03:13:03;;;;;;;58.65;21.33;;;;;;;;;;5094122;28;20726;-63
2021/03/02 03:15:31;;;;;;;65.47;21.10;;;;;;;;;;5094473;28;20201;-64
2021/03/02 03:17:59;;;;;;;68.88;22.70;;;;;;;;;;5094401;28;20197;-64
2021/03/02 03:20:27;;;;;;;46.88;19.80;;;;;;;;;;5094011;28;20579;-63
2021/03/02 03:22:54;;;;;;;57.58;20.83;;;;;;;;;;5093913;28;20204;-64
2021/03/02 03:25:21;;;;;;;48.63;21.63;;;;;;;;;;5101490;28;20204;-63
2021/03/02 03:27:49;;;;;;;40.67;20.33;;;;;;;;;;5094302;28;20197;-65
2021/03/02 03:30:17;;;;;;;48.92;21.92;;;;;;;;;;5093996;28;20208;-64
2021/03/02 03:32:45;;;;;;;56.38;20.63;;;;;;;;;;5093919;28;20672;-64
2021/03/02 03:35:12;;;;;;;53.03;19.85;;;;;;;;;;5094178;28;20204;-63
2021/03/02 03:37:40;;;;;;;98.03;24.27;;;;;;;;;;5094020;28;20200;-62
2021/03/02 03:40:07;;;;;;;36.70;18.23;;;;;;;;;;5094366;28;20204;-63
2021/03/02 03:42:34;;;;;;;46.50;18.60;;;;;;;;;;5105896;28;20200;-63
2021/03/02 03:45:01;;;;;;;69.07;20.17;;;;;;;;;;5113394;28;20258;-63
2021/03/02 03:47:28;;;;;;;34.78;18.40;;;;;;;;;;5094480;28;20204;-64
2021/03/02 03:49:55;;;;;;;43.35;18.55;;;;;;;;;;5095571;28;20277;-64
2021/03/02 03:52:22;;;;;;;45.85;18.85;;;;;;;;;;5098963;28;20204;-62
2021/03/02 03:54:50;;;;;;;38.42;19.30;;;;;;;;;;5095893;28;20224;-64
2021/03/02 03:57:17;;;;;;;34.05;18.20;;;;;;;;;;5096020;28;20624;-64
2021/03/02 03:59:44;;;;;;;30.83;17.10;;;;;;;;;;5097616;28;20208;-63
2021/03/02 04:02:11;;;;;;;34.97;18.38;;;;;;;;;;5096062;28;20200;-63
2021/03/02 04:07:48;;;;;;;42.92;16.40;;;;;;;;;;5113261;27;21035;-63
2021/03/02 04:10:16;;;;;;;34.50;16.73;;;;;;;;;;5112586;28;20195;-63
2021/03/02 04:12:43;;;;;;;34.55;15.82;;;;;;;;;;5111248;28;20663;-65
2021/03/02 04:15:11;;;;;;;41.42;17.17;;;;;;;;;;5110963;28;20207;-64
2021/03/02 04:17:38;;;;;;;34.40;14.45;;;;;;;;;;5111459;28;20200;-64
2021/03/02 04:20:06;;;;;;;32.50;16.25;;;;;;;;;;5111129;28;20200;-64
2021/03/02 04:22:35;;;;;;;37.97;14.65;;;;;;;;;;5111023;28;20204;-64
2021/03/02 04:25:02;;;;;;;22.27;14.35;;;;;;;;;;5111260;28;20200;-64
2021/03/02 04:27:29;;;;;;;28.13;15.07;;;;;;;;;;5110855;28;20216;-63
2021/03/02 04:29:56;;;;;;;32.13;15.38;;;;;;;;;;5110865;28;20663;-63
2021/03/02 04:32:23;;;;;;;29.67;14.05;;;;;;;;;;5110762;28;20213;-63
2021/03/02 04:34:49;;;;;;;59.60;15.05;;;;;;;;;;5111262;28;20227;-64
2021/03/02 04:37:16;;;;;;;39.55;14.73;;;;;;;;;;5111176;28;20249;-63
2021/03/02 04:39:43;;;;;;;28.35;13.80;;;;;;;;;;5110875;28;20671;-64
2021/03/02 04:42:10;;;;;;;34.55;13.18;;;;;;;;;;5110733;28;20671;-63
2021/03/02 04:44:37;;;;;;;21.52;13.30;;;;;;;;;;5111046;28;20224;-64
2021/03/02 04:47:04;;;;;;;25.10;13.75;;;;;;;;;;5110441;28;20224;-64
2021/03/02 04:49:31;;;;;;;19.60;13.38;;;;;;;;;;5110610;28;20667;-62
2021/03/02 04:51:58;;;;;;;39.42;13.52;;;;;;;;;;5110814;28;20614;-64
2021/03/02 04:54:25;;;;;;;24.73;13.50;;;;;;;;;;5110336;28;20711;-63
2021/03/02 04:56:52;;;;;;;45.65;14.65;;;;;;;;;;5110778;28;20198;-64
2021/03/02 04:59:20;;;;;;;17.73;12.30;;;;;;;;;;5110444;28;20230;-64
2021/03/02 05:01:47;;;;;;;23.92;12.35;;;;;;;;;;5110024;28;20677;-64
2021/03/02 05:04:13;;;;;;;30.77;13.63;;;;;;;;;;5110523;28;20215;-64
2021/03/02 05:06:40;;;;;;;23.92;13.23;;;;;;;;;;5110149;28;20243;-64
2021/03/02 05:09:07;;;;;;;28.05;12.45;;;;;;;;;;5110029;28;20203;-64
2021/03/02 05:11:34;;;;;;;28.75;12.85;;;;;;;;;;5110141;28;20223;-63
2021/03/02 05:14:00;;;;;;;21.80;11.25;;;;;;;;;;5109880;28;20703;-64
2021/03/02 05:16:28;;;;;;;26.80;13.50;;;;;;;;;;5110172;28;20265;-63
2021/03/02 05:18:55;;;;;;;32.88;12.18;;;;;;;;;;5097905;28;20273;-63
2021/03/02 05:21:21;;;;;;;18.17;11.65;;;;;;;;;;5096375;28;20717;-62
2021/03/02 05:23:48;;;;;;;29.95;11.65;;;;;;;;;;5096159;28;20224;-63
2021/03/02 05:26:15;;;;;;;21.52;12.43;;;;;;;;;;5096605;28;20567;-63
2021/03/02 05:28:42;;;;;;;27.35;13.77;;;;;;;;;;5096409;28;20578;-63
2021/03/02 05:31:08;;;;;;;23.05;12.73;;;;;;;;;;5096660;28;20211;-63
2021/03/02 05:33:36;;;;;;;25.83;12.43;;;;;;;;;;5097872;28;20221;-64
2021/03/02 05:36:03;;;;;;;19.65;12.18;;;;;;;;;;5096611;28;20690;-63
2021/03/02 05:38:29;;;;;;;23.20;13.30;;;;;;;;;;5097881;28;20204;-63
2021/03/02 05:40:56;;;;;;;21.45;13.40;;;;;;;;;;5096900;28;20212;-63
2021/03/02 05:43:23;;;;;;;24.73;12.80;;;;;;;;;;5096479;28;20216;-64
2021/03/02 05:45:50;;;;;;;22.13;11.70;;;;;;;;;;5096081;28;20217;-64
2021/03/02 05:48:17;;;;;;;33.35;13.55;;;;;;;;;;5095960;28;20200;-63
2021/03/02 05:50:45;;;;;;;72.18;14.30;;;;;;;;;;5095899;28;20200;-63
2021/03/02 05:53:11;;;;;;;28.33;13.38;;;;;;;;;;5095838;28;20244;-63
2021/03/02 05:55:39;;;;;;;23.20;12.75;;;;;;;;;;5101429;28;20200;-64
2021/03/02 05:58:06;;;;;;;19.42;12.95;;;;;;;;;;5097306;28;20205;-63
2021/03/02 06:00:33;;;;;;;17.05;12.63;;;;;;;;;;5095840;28;20200;-62
2021/03/02 06:03:00;;;;;;;22.85;11.98;;;;;;;;;;5095944;28;20223;-64
2021/03/02 06:05:27;;;;;;;24.85;12.40;;;;;;;;;;5095418;28;20200;-64
2021/03/02 06:07:54;;;;;;;18.75;12.35;;;;;;;;;;5095402;28;20569;-64
2021/03/02 06:10:28;;;;;;;31.25;13.60;;;;;;;;;;5095292;28;20200;-62
2021/03/02 06:12:55;;;;;;;25.50;14.43;;;;;;;;;;5095422;28;20656;-63
2021/03/02 06:15:22;;;;;;;25.92;12.65;;;;;;;;;;5095889;28;20303;-64
2021/03/02 06:18:08;;;;;;;55.17;14.55;;;;;;;;;;5096113;28;20196;-61
2021/03/02 06:20:34;;;;;;;26.40;12.02;;;;;;;;;;5096363;28;20184;-64
2021/03/02 06:23:19;;;;;;;23.50;11.90;;;;;;;;;;5096381;28;20227;-65
2021/03/02 06:25:45;;;;;;;20.35;13.00;;;;;;;;;;5097590;28;20192;-63
2021/03/02 06:28:12;;;;;;;16.60;12.00;;;;;;;;;;5096390;28;20196;-63
2021/03/02 06:30:39;;;;;;;26.73;12.88;;;;;;;;;;5099812;28;20201;-63
2021/03/02 06:33:16;;;;;;;27.30;14.75;;;;;;;;;;5101590;28;20601;-63
2021/03/02 06:35:44;;;;;;;25.55;13.85;;;;;;;;;;5106975;28;20214;-64
2021/03/02 06:38:12;;;;;;;17.38;12.40;;;;;;;;;;5098170;28;20541;-64
2021/03/02 06:40:40;;;;;;;23.50;14.73;;;;;;;;;;5097948;28;20230;-64
2021/03/02 06:43:08;;;;;;;29.35;14.02;;;;;;;;;;5099321;28;20246;-64
2021/03/02 06:45:35;;;;;;;26.05;15.00;;;;;;;;;;5098593;28;20201;-64
2021/03/02 06:48:03;;;;;;;29.38;13.95;;;;;;;;;;5097189;28;20195;-64
2021/03/02 06:50:30;;;;;;;33.55;15.20;;;;;;;;;;5099859;28;20211;-64
2021/03/02 06:52:57;;;;;;;27.80;15.45;;;;;;;;;;5107884;28;20235;-64
2021/03/02 06:55:26;;;;;;;53.72;16.27;;;;;;;;;;5096603;28;20574;-64
2021/03/02 06:57:53;;;;;;;25.33;16.33;;;;;;;;;;5096608;28;20204;-62
2021/03/02 07:00:33;;;;;;;41.03;17.00;;;;;;;;;;5096236;28;20211;-64
2021/03/02 07:03:00;;;;;;;24.35;15.95;;;;;;;;;;5096082;28;20311;-63
2021/03/02 07:05:26;;;;;;;27.77;15.57;;;;;;;;;;5094953;28;20302;-63
2021/03/02 07:07:56;;;;;;;29.90;15.88;;;;;;;;;;5095128;28;20212;-64
2021/03/02 07:10:23;;;;;;;27.02;16.80;;;;;;;;;;5094497;28;20200;-63
2021/03/02 07:12:54;;;;;;;28.08;15.23;;;;;;;;;;5094184;28;20208;-63
2021/03/02 07:15:23;;;;;;;40.50;17.02;;;;;;;;;;5094254;28;20185;-63
2021/03/02 07:17:51;;;;;;;25.58;16.65;;;;;;;;;;5094336;28;20196;-63
2021/03/02 07:20:18;;;;;;;23.85;14.63;;;;;;;;;;5094350;28;20576;-63
2021/03/02 07:22:48;;;;;;;25.35;15.70;;;;;;;;;;5093806;28;20664;-63
2021/03/02 07:25:18;;;;;;;22.50;15.25;;;;;;;;;;5094157;28;20668;-63
2021/03/02 07:27:47;;;;;;;26.85;15.77;;;;;;;;;;5094209;28;20216;-63
2021/03/02 07:30:17;;;;;;;28.65;16.17;;;;;;;;;;5094387;28;20200;-62
2021/03/02 07:32:44;;;;;;;31.63;17.50;;;;;;;;;;5094157;28;20614;-63
2021/03/02 07:35:15;;;;;;;23.17;15.40;;;;;;;;;;5095184;28;20196;-63
2021/03/02 07:37:42;;;;;;;23.13;14.40;;;;;;;;;;5094155;28;20593;-64
2021/03/02 07:40:10;;;;;;;24.83;14.35;;;;;;;;;;5093677;28;20668;-63
2021/03/02 07:42:37;;;;;;;21.58;12.85;;;;;;;;;;5093870;28;20200;-61
2021/03/02 07:45:09;;;;;;;22.85;14.15;;;;;;;;;;5093508;28;20714;-63
2021/03/02 07:47:46;;;;;;;20.30;13.63;;;;;;;;;;5093502;28;20671;-64
2021/03/02 07:50:21;;;;;;;22.27;13.10;;;;;;;;;;5094716;28;20588;-63
2021/03/02 07:52:48;;;;;;;24.33;13.88;;;;;;;;;;5096929;28;20225;-64
2021/03/02 07:55:21;;;;;;;19.33;13.43;;;;;;;;;;5097448;28;20196;-62
2021/03/02 07:57:49;;;;;;;16.55;10.82;;;;;;;;;;5097388;28;20562;-62
2021/03/02 08:00:22;;;;;;;16.80;10.95;;;;;;;;;;5097306;28;20275;-62
2021/03/02 08:03:10;;;;;;;20.05;12.35;;;;;;;;;;5094618;28;20204;-62
2021/03/02 08:05:38;;;;;;;20.42;11.80;;;;;;;;;;5089041;28;20257;-62
2021/03/02 08:08:23;;;;;;;20.25;10.95;;;;;;;;;;5093785;28;20204;-63
2021/03/02 08:10:49;;;;;;;17.52;10.95;;;;;;;;;;5093840;28;20200;-62
2021/03/02 08:13:31;;;;;;;18.58;11.90;;;;;;;;;;5096638;28;20227;-64
2021/03/02 08:15:58;;;;;;;20.25;11.40;;;;;;;;;;5099296;28;20195;-63
2021/03/02 08:18:36;;;;;;;16.45;11.23;;;;;;;;;;5100512;28;20251;-63
2021/03/02 08:21:08;;;;;;;21.63;12.30;;;;;;;;;;5100478;28;20652;-63
2021/03/02 08:23:48;;;;;;;19.92;10.68;;;;;;;;;;5097798;28;20220;-63
2021/03/02 08:26:22;;;;;;;16.23;10.93;;;;;;;;;;5100496;28;20211;-66
2021/03/02 08:29:03;;;;;;;19.05;11.65;;;;;;;;;;5098801;28;20250;-64
2021/03/02 08:31:30;;;;;;;14.73;11.02;;;;;;;;;;5096156;28;20196;-62
2021/03/02 08:33:57;;;;;;;15.82;11.32;;;;;;;;;;5094547;28;20707;-62
2021/03/02 08:36:24;;;;;;;15.10;10.70;;;;;;;;;;5094907;28;20200;-63
2021/03/02 08:38:52;;;;;;;14.57;10.75;;;;;;;;;;5095605;28;20201;-62
2021/03/02 08:41:27;;;;;;;14.85;10.55;;;;;;;;;;5096133;28;20200;-65
2021/03/02 08:43:54;;;;;;;13.18;10.73;;;;;;;;;;5096489;28;20257;-64
2021/03/02 08:46:24;;;;;;;14.57;10.10;;;;;;;;;;5095976;28;20220;-63
2021/03/02 08:48:50;;;;;;;14.15;10.82;;;;;;;;;;5095687;28;20204;-61
2021/03/02 08:51:20;;;;;;;15.23;10.80;;;;;;;;;;5095905;28;20200;-63
2021/03/02 08:53:48;;;;;;;13.13;10.63;;;;;;;;;;5098079;28;20220;-65
2021/03/02 08:56:23;;;;;;;16.50;10.45;;;;;;;;;;5098968;28;20274;-64
2021/03/02 08:58:51;;;;;;;16.83;11.40;;;;;;;;;;5098520;28;20337;-64
2021/03/02 09:01:26;;;;;;;13.38;9.40;;;;;;;;;;5098468;28;20204;-63
2021/03/02 09:03:53;;;;;;;15.27;11.25;;;;;;;;;;5097351;28;20738;-62
2021/03/02 09:06:21;;;;;;;17.35;10.95;;;;;;;;;;5097685;28;20227;-63
2021/03/02 09:08:56;;;;;;;12.38;9.77;;;;;;;;;;5098341;28;20204;-62
2021/03/02 09:11:24;;;;;;;19.60;13.48;;;;;;;;;;5096754;28;20243;-64
2021/03/02 09:13:52;;;;;;;18.17;13.82;;;;;;;;;;5096399;28;20711;-62
2021/03/02 09:16:30;;;;;;;20.52;14.30;;;;;;;;;;5097103;28;20199;-64
2021/03/02 09:19:04;;;;;;;19.25;14.00;;;;;;;;;;5096347;28;20203;-63
2021/03/02 09:21:31;;;;;;;19.85;13.43;;;;;;;;;;5105764;28;20198;-63
2021/03/02 09:23:58;;;;;;;19.92;13.88;;;;;;;;;;5111656;28;20224;-63
2021/03/02 09:26:26;;;;;;;20.35;14.07;;;;;;;;;;5114005;28;20216;-62
2021/03/02 09:28:53;;;;;;;21.23;14.50;;;;;;;;;;5097998;28;20729;-64
2021/03/02 09:31:20;;;;;;;18.77;14.10;;;;;;;;;;5097380;28;20238;-64
2021/03/02 09:33:48;;;;;;;20.35;13.63;;;;;;;;;;5096985;28;20247;-63
2021/03/02 09:36:15;;;;;;;18.83;14.05;;;;;;;;;;5096448;28;20664;-63
2021/03/02 09:38:42;;;;;;;19.38;14.05;;;;;;;;;;5096116;28;20204;-63
2021/03/02 09:41:10;;;;;;;18.15;12.75;;;;;;;;;;5097095;28;20193;-65
2021/03/02 09:43:37;;;;;;;17.58;13.18;;;;;;;;;;5096818;28;20224;-62
2021/03/02 09:46:04;;;;;;;21.77;13.82;;;;;;;;;;5096832;28;20206;-63
2021/03/02 09:48:43;;;;;;;19.65;13.95;;;;;;;;;;5096435;28;20200;-63
2021/03/02 09:51:24;;;;;;;19.13;13.43;;;;;;;;;;5096771;28;20239;-64
2021/03/02 09:53:51;;;;;;;22.15;14.90;;;;;;;;;;5107498;28;20220;-63
2021/03/02 09:56:19;;;;;;;17.80;13.18;;;;;;;;;;5103922;28;20197;-64
2021/03/02 09:58:47;;;;;;;23.02;13.98;;;;;;;;;;5097010;28;20200;-63
2021/03/02 10:01:14;;;;;;;22.00;15.30;;;;;;;;;;5099045;28;20219;-61
2021/03/02 10:03:42;;;;;;;18.90;14.45;;;;;;;;;;5096066;28;20278;-64
2021/03/02 10:06:09;;;;;;;17.05;13.07;;;;;;;;;;5096039;28;20215;-64
2021/03/02 10:08:36;;;;;;;19.08;13.18;;;;;;;;;;5097895;28;20675;-64
2021/03/02 10:11:05;;;;;;;15.63;13.27;;;;;;;;;;5096048;28;20614;-66
2021/03/02 10:13:34;;;;;;;18.45;12.77;;;;;;;;;;5096081;28;20224;-64
2021/03/02 10:16:10;;;;;;;20.13;12.60;;;;;;;;;;5095750;28;20749;-64
2021/03/02 10:18:37;;;;;;;19.65;13.90;;;;;;;;;;5096699;28;20218;-63
2021/03/02 10:21:05;;;;;;;20.40;14.30;;;;;;;;;;5097300;28;20269;-63
2021/03/02 10:23:31;;;;;;;23.67;15.93;;;;;;;;;;5096573;28;20220;-63
2021/03/02 10:25:59;;;;;;;21.92;15.82;;;;;;;;;;5095473;28;20197;-63
2021/03/02 10:28:33;;;;;;;24.60;17.08;;;;;;;;;;5095633;28;20204;-64
2021/03/02 10:31:00;;;;;;;26.42;17.45;;;;;;;;;;5095584;28;20570;-63
2021/03/02 10:33:27;;;;;;;25.30;17.90;;;;;;;;;;5095484;28;20243;-68
2021/03/02 10:35:54;;;;;;;30.30;19.80;;;;;;;;;;5095795;28;20257;-65
2021/03/02 10:38:21;;;;;;;31.17;20.60;;;;;;;;;;5094867;28;20204;-63
2021/03/02 10:40:48;;;;;;;38.20;22.38;;;;;;;;;;5095002;28;20197;-64
2021/03/02 10:43:14;;;;;;;31.38;21.75;;;;;;;;;;5095306;28;20216;-65
2021/03/02 10:45:42;;;;;;;27.70;19.55;;;;;;;;;;5095909;28;20242;-61
2021/03/02 10:48:09;;;;;;;28.40;19.42;;;;;;;;;;5095038;28;20220;-64
2021/03/02 10:50:36;;;;;;;29.70;19.30;;;;;;;;;;5096933;28;20208;-65
2021/03/02 10:53:02;;;;;;;34.10;22.13;;;;;;;;;;5095181;28;20224;-65
2021/03/02 10:55:29;;;;;;;30.05;20.20;;;;;;;;;;5097246;28;20640;-63
2021/03/02 10:57:56;;;;;;;36.22;23.13;;;;;;;;;;5101043;28;20196;-65
2021/03/02 11:00:23;;;;;;;44.30;25.05;;;;;;;;;;5096403;28;20200;-65
2021/03/02 11:02:51;;;;;;;46.22;26.85;;;;;;;;;;5095876;28;20238;-64
2021/03/02 11:05:17;;;;;;;42.45;25.65;;;;;;;;;;5095471;28;20197;-64
2021/03/02 11:07:44;;;;;;;45.22;28.13;;;;;;;;;;5094588;28;20274;-63
2021/03/02 11:10:11;;;;;;;42.33;27.52;;;;;;;;;;5094707;28;20207;-64
2021/03/02 11:12:39;;;;;;;48.50;28.40;;;;;;;;;;5095885;28;20196;-63
2021/03/02 11:15:09;;;;;;;54.80;29.75;;;;;;;;;;5096681;28;20703;-64
2021/03/02 11:17:36;;;;;;;60.00;33.45;;;;;;;;;;5096512;28;20583;-63
2021/03/02 11:20:04;;;;;;;70.50;39.63;;;;;;;;;;5097187;28;20207;-65
2021/03/02 11:22:31;;;;;;;63.40;36.33;;;;;;;;;;5098869;28;20200;-64
2021/03/02 11:24:58;;;;;;;60.20;33.85;;;;;;;;;;5096542;28;20216;-63
2021/03/02 11:27:25;;;;;;;57.35;30.67;;;;;;;;;;5098093;28;20761;-64
2021/03/02 11:29:51;;;;;;;60.00;35.30;;;;;;;;;;5098428;28;20257;-64
2021/03/02 11:32:18;;;;;;;60.15;33.83;;;;;;;;;;5096737;28;20208;-63
2021/03/02 11:34:45;;;;;;;61.17;35.63;;;;;;;;;;5096795;28;20225;-64
2021/03/02 11:37:13;;;;;;;80.15;38.05;;;;;;;;;;5095864;28;20207;-65
2021/03/02 11:39:39;;;;;;;80.60;38.97;;;;;;;;;;5094090;28;20208;-64
2021/03/02 11:42:06;;;;;;;74.70;39.50;;;;;;;;;;5096067;28;20638;-63
2021/03/02 11:44:33;;;;;;;74.80;37.05;;;;;;;;;;5095676;28;20220;-64
2021/03/02 11:47:00;;;;;;;92.25;46.80;;;;;;;;;;5094505;28;20220;-64
2021/03/02 11:49:26;;;;;;;83.03;42.03;;;;;;;;;;5093854;28;20199;-64
2021/03/02 11:51:53;;;;;;;103.18;50.08;;;;;;;;;;5093674;28;20196;-64
2021/03/02 11:54:21;;;;;;;97.28;47.28;;;;;;;;;;5093695;28;20291;-63
2021/03/02 11:56:48;;;;;;;101.97;48.75;;;;;;;;;;5093778;28;20227;-64
2021/03/02 11:59:14;;;;;;;93.85;46.95;;;;;;;;;;5094026;28;20571;-64
2021/03/02 12:01:41;;;;;;;79.43;40.35;;;;;;;;;;5093578;28;20211;-65
2021/03/02 12:04:08;;;;;;;84.05;43.72;;;;;;;;;;5093444;28;20216;-63
2021/03/02 12:06:35;;;;;;;93.25;47.08;;;;;;;;;;5093625;28;20220;-64
2021/03/02 12:09:01;;;;;;;96.68;50.40;;;;;;;;;;5093403;28;20204;-64
2021/03/02 12:11:29;;;;;;;94.68;47.47;;;;;;;;;;5093772;28;20200;-65
2021/03/02 12:13:56;;;;;;;95.18;45.55;;;;;;;;;;5093830;28;20220;-64
2021/03/02 12:16:23;;;;;;;83.60;44.45;;;;;;;;;;5094125;28;20206;-64
2021/03/02 12:18:50;;;;;;;81.35;43.53;;;;;;;;;;5104976;28;20204;-64
2021/03/02 12:21:16;;;;;;;84.25;44.42;;;;;;;;;;5111509;28;20222;-64
2021/03/02 12:23:43;;;;;;;100.22;50.03;;;;;;;;;;5098454;28;20652;-65
2021/03/02 12:26:10;;;;;;;91.47;48.15;;;;;;;;;;5094212;28;20200;-64
2021/03/02 12:28:38;;;;;;;90.47;49.22;;;;;;;;;;5095890;28;20207;-64
2021/03/02 12:31:04;;;;;;;91.15;46.65;;;;;;;;;;5097308;28;20200;-62
2021/03/02 12:33:31;;;;;;;82.90;45.70;;;;;;;;;;5099096;28;20227;-64
2021/03/02 12:35:58;;;;;;;79.13;42.50;;;;;;;;;;5099244;28;20200;-64
2021/03/02 12:38:25;;;;;;;64.47;37.88;;;;;;;;;;5098923;28;20253;-65
2021/03/02 12:40:51;;;;;;;61.88;35.53;;;;;;;;;;5097810;28;20204;-64
2021/03/02 12:43:20;;;;;;;56.92;32.97;;;;;;;;;;5098573;28;20227;-64
2021/03/02 12:45:47;;;;;;;57.35;32.70;;;;;;;;;;5098790;28;20238;-65
2021/03/02 12:48:14;;;;;;;61.00;32.90;;;;;;;;;;5097504;28;20227;-65
2021/03/02 12:50:41;;;;;;;56.63;33.88;;;;;;;;;;5097997;28;20208;-64
2021/03/02 12:53:08;;;;;;;49.50;30.13;;;;;;;;;;5096564;28;20220;-65
2021/03/02 12:55:35;;;;;;;58.60;32.17;;;;;;;;;;5097718;28;20203;-65
2021/03/02 12:58:01;;;;;;;45.70;29.63;;;;;;;;;;5097434;28;20575;-64
2021/03/02 13:00:28;;;;;;;42.73;28.03;;;;;;;;;;5097863;28;20803;-65
2021/03/02 13:02:58;;;;;;;48.23;28.93;;;;;;;;;;5110450;28;20472;-64
2021/03/02 13:05:25;;;;;;;46.95;27.90;;;;;;;;;;5106220;28;20476;-64
2021/03/02 13:07:52;;;;;;;40.90;25.33;;;;;;;;;;5098811;28;20209;-63
2021/03/02 13:10:19;;;;;;;42.83;26.48;;;;;;;;;;5099492;28;20457;-64
2021/03/02 13:12:46;;;;;;;41.40;26.57;;;;;;;;;;5097415;28;20204;-65
2021/03/02 13:15:13;;;;;;;37.78;24.23;;;;;;;;;;5097488;28;20816;-65
2021/03/02 13:17:40;;;;;;;42.07;25.17;;;;;;;;;;5099638;28;20200;-63
2021/03/02 13:20:08;;;;;;;42.90;26.70;;;;;;;;;;5097682;28;20446;-64
2021/03/02 13:22:35;;;;;;;36.53;23.37;;;;;;;;;;5097258;28;20472;-65
2021/03/02 13:25:02;;;;;;;35.80;23.83;;;;;;;;;;5096574;28;20446;-63
2021/03/02 13:27:29;;;;;;;37.30;23.20;;;;;;;;;;5096780;28;20520;-64
2021/03/02 13:29:57;;;;;;;34.40;21.73;;;;;;;;;;5096589;28;20450;-63
2021/03/02 13:32:25;;;;;;;36.23;21.20;;;;;;;;;;5103153;28;20453;-64
2021/03/02 13:34:52;;;;;;;31.47;19.73;;;;;;;;;;5096940;28;20962;-65
2021/03/02 13:37:21;;;;;;;35.13;20.03;;;;;;;;;;5096972;28;20454;-63
2021/03/02 13:39:48;;;;;;;35.20;22.67;;;;;;;;;;5097142;28;20450;-64
2021/03/02 13:42:15;;;;;;;35.07;20.40;;;;;;;;;;5098993;28;20438;-65
2021/03/02 13:44:42;;;;;;;35.33;21.67;;;;;;;;;;5098898;28;21058;-64
2021/03/02 13:47:10;;;;;;;36.70;20.93;;;;;;;;;;5098119;28;20481;-63
2021/03/02 13:49:37;;;;;;;38.13;21.43;;;;;;;;;;5097777;28;20446;-65
2021/03/02 13:52:04;;;;;;;36.47;21.17;;;;;;;;;;5099166;28;20442;-64
2021/03/02 13:54:32;;;;;;;39.40;21.60;;;;;;;;;;5099481;28;20466;-64
2021/03/02 13:57:01;;;;;;;33.60;19.67;;;;;;;;;;5098980;28;20887;-66
2021/03/02 13:59:28;;;;;;;30.47;20.33;;;;;;;;;;5097522;28;20489;-65
2021/03/02 14:01:55;;;;;;;38.70;21.73;;;;;;;;;;5101159;28;20450;-66
2021/03/02 14:04:22;;;;;;;35.10;20.80;;;;;;;;;;5098903;28;20466;-66
2021/03/02 14:06:50;;;;;;;30.90;20.00;;;;;;;;;;5099246;28;20489;-65
2021/03/02 14:09:17;;;;;;;34.20;21.13;;;;;;;;;;5100628;28;20485;-66
2021/03/02 14:11:44;;;;;;;34.03;20.20;;;;;;;;;;5098049;28;20472;-65
2021/03/02 14:14:11;;;;;;;29.80;19.77;;;;;;;;;;5096694;28;20990;-66
2021/03/02 14:16:38;;;;;;;28.43;19.03;;;;;;;;;;5097667;28;20446;-66
2021/03/02 14:19:05;;;;;;;33.80;19.97;;;;;;;;;;5098489;28;20446;-65
2021/03/02 14:21:33;;;;;;;36.73;20.67;;;;;;;;;;5098202;28;20445;-66
2021/03/02 14:24:02;;;;;;;29.17;20.00;;;;;;;;;;5098078;28;20561;-65